Salt Lake City, Utah
Traffic Map
Current Weather Conditions
Salt Lake City, Utah
Broken Clouds
Broken Clouds
41°
Feels Like: 32°
Wind Chill: 32° Ceiling: 13000
Heat Index: 41° Visibility: 10mi
Dew Point: 30° Wind: 18mph
Humidity: 65% Direction: 170° (S)
Pressure: 29.46in Gusts: 0mph
Raw Report DataKSLC 202054Z 17016KT 10SM FEW020 FEW040 FEW080 BKN130 BKN200 05/M01 A2946 RMK AO2 SLP965 ACSL DSNT N AND E T00501011 56028
Traffic Incident Summary
Active as of:
Severity:
Category:
InformationThere was an issue retrieving the traffic information for this location. Please try a different location or try again shortly.
Advertisements
Track Severe Weather on mobile